createdAt,value
2022-09-02T00:02:06.498Z,42.6
2022-09-02T00:07:07.188Z,42.6
2022-09-02T00:12:07.921Z,42.5
2022-09-02T00:17:08.408Z,42.5
2022-09-02T00:22:08.882Z,42.4
2022-09-02T00:27:09.362Z,42.4
2022-09-02T00:32:09.932Z,42.4
2022-09-02T00:37:10.531Z,42.4
2022-09-02T00:42:11.028Z,42.3
2022-09-02T00:47:11.502Z,42.2
2022-09-02T00:52:11.975Z,42.2
2022-09-02T00:57:12.497Z,42.2
2022-09-02T01:02:13.094Z,42.2
2022-09-02T01:07:13.706Z,42.1
2022-09-02T01:12:14.159Z,42.1
2022-09-02T01:17:14.611Z,42.1
2022-09-02T01:22:15.096Z,42
2022-09-02T01:27:15.616Z,42
2022-09-02T01:32:16.078Z,41.9
2022-09-02T01:37:16.505Z,41.9
2022-09-02T01:42:16.942Z,41.9
2022-09-02T01:47:17.372Z,41.9
2022-09-02T01:52:17.779Z,41.8
2022-09-02T01:57:18.181Z,41.8
2022-09-02T02:02:18.663Z,41.7
2022-09-02T02:07:19.286Z,41.7
2022-09-02T02:12:19.692Z,41.7
2022-09-02T02:17:20.134Z,41.7
2022-09-02T02:22:20.573Z,41.6
2022-09-02T02:27:20.987Z,41.6
2022-09-02T02:32:21.394Z,41.6
2022-09-02T02:37:25.341Z,41.5
2022-09-02T02:42:25.967Z,41.5
2022-09-02T02:47:26.402Z,41.4
2022-09-02T02:52:26.806Z,41.4
2022-09-02T02:57:27.212Z,41.4
2022-09-02T03:02:27.820Z,41.4
2022-09-02T03:07:28.409Z,41.3
2022-09-02T03:12:28.816Z,41.3
2022-09-02T03:17:29.221Z,41.2
2022-09-02T03:22:29.642Z,41.2
2022-09-02T03:27:30.068Z,41.2
2022-09-02T03:32:30.845Z,41.2
2022-09-02T03:37:31.242Z,41.1
2022-09-02T03:42:31.689Z,41.1
2022-09-02T03:47:32.098Z,41.1
2022-09-02T03:52:32.523Z,41.1
2022-09-02T03:57:32.962Z,41
2022-09-02T04:02:34.667Z,41
2022-09-02T04:07:36.042Z,40.9
2022-09-02T04:12:36.533Z,40.9
2022-09-02T04:17:36.992Z,40.9
2022-09-02T04:22:37.473Z,40.9
2022-09-02T04:27:37.918Z,40.8
2022-09-02T04:32:40.570Z,40.8
2022-09-02T04:37:41.447Z,40.8
2022-09-02T04:42:42.125Z,40.8
2022-09-02T04:47:42.591Z,40.7
2022-09-02T04:52:46.320Z,40.7
2022-09-02T04:57:46.774Z,40.6
2022-09-02T05:02:47.382Z,40.6
2022-09-02T05:07:47.892Z,40.6
2022-09-02T05:12:48.326Z,40.6
2022-09-02T05:17:48.780Z,40.5
2022-09-02T05:22:49.193Z,40.5
2022-09-02T05:27:49.634Z,40.5
2022-09-02T05:32:50.061Z,40.4
2022-09-02T05:37:51.547Z,40.4
2022-09-02T05:42:51.952Z,40.4
2022-09-02T05:47:52.353Z,40.4
2022-09-02T05:52:52.793Z,40.3
2022-09-02T05:57:53.196Z,40.3
2022-09-02T06:02:54.916Z,40.2
2022-09-02T06:07:55.375Z,40.2
2022-09-02T06:12:55.799Z,40.2
2022-09-02T06:17:57.358Z,40.2
2022-09-02T06:22:58.003Z,40.1
2022-09-02T06:27:58.428Z,40.1
2022-09-02T06:32:59.071Z,40.1
2022-09-02T06:37:59.488Z,40.1
2022-09-02T06:42:59.910Z,40.1
2022-09-02T06:48:00.353Z,40
2022-09-02T06:53:00.773Z,40
2022-09-02T06:58:01.216Z,39.9
2022-09-02T07:03:01.657Z,39.9
2022-09-02T07:08:02.074Z,39.9
2022-09-02T07:13:02.494Z,39.9
2022-09-02T07:18:02.923Z,39.8
2022-09-02T07:23:03.320Z,39.8
2022-09-02T07:28:03.734Z,39.8
2022-09-02T07:33:05.315Z,39.7
2022-09-02T07:38:05.784Z,39.7
2022-09-02T07:43:06.256Z,39.7
2022-09-02T07:48:06.695Z,39.3
2022-09-02T07:53:07.111Z,39.1
2022-09-02T07:58:07.504Z,39.1
2022-09-02T08:08:08.559Z,39
2022-09-02T08:13:09.877Z,39
2022-09-02T08:18:11.400Z,38.9
2022-09-02T08:23:36.497Z,38.9
2022-09-02T08:28:37.572Z,38.9
2022-09-02T08:33:38.005Z,38.9
2022-09-02T08:38:38.398Z,38.8
2022-09-02T08:43:39.696Z,38.8
2022-09-02T08:48:40.102Z,38.8
2022-09-02T08:53:40.538Z,38.7
2022-09-02T08:58:40.954Z,38.7
2022-09-02T09:03:41.344Z,38.7
2022-09-02T09:08:41.739Z,38.7
2022-09-02T09:13:42.121Z,38.7
2022-09-02T09:18:42.527Z,38.6
2022-09-02T09:23:42.962Z,38.6
2022-09-02T09:28:43.351Z,38.6
2022-09-02T09:33:43.769Z,38.6
2022-09-02T09:38:44.171Z,38.6
2022-09-02T09:43:44.619Z,38.5
2022-09-02T09:48:45.279Z,38.5
2022-09-02T09:53:45.694Z,38.5
2022-09-02T09:58:46.096Z,38.4
2022-09-02T10:03:46.495Z,38.4
2022-09-02T10:08:46.914Z,38.4
2022-09-02T10:13:47.322Z,38.4
2022-09-02T10:18:49.081Z,38.4
2022-09-02T10:23:49.790Z,38.3
2022-09-02T10:28:50.198Z,38.3
2022-09-02T10:33:53.553Z,38.3
2022-09-02T10:38:53.965Z,38.2
2022-09-02T10:43:56.916Z,38.2
2022-09-02T10:48:57.943Z,38.2
2022-09-02T10:53:58.315Z,38.2
2022-09-02T11:04:00.352Z,38.1
2022-09-02T11:09:00.904Z,38.1
2022-09-02T11:14:01.286Z,38.1
2022-09-02T11:19:02.519Z,38.1
2022-09-02T11:24:02.900Z,38.1
2022-09-02T11:29:03.428Z,38.1
2022-09-02T11:39:05.088Z,38
2022-09-02T11:44:05.735Z,38
2022-09-02T11:49:06.388Z,37.9
2022-09-02T11:54:08.787Z,37.9
2022-09-02T11:59:10.036Z,37.9
2022-09-02T12:04:55.711Z,37.9
2022-09-02T12:09:58.894Z,37.9
2022-09-02T12:14:59.324Z,37.8
2022-09-02T12:19:59.694Z,37.8
2022-09-02T12:25:00.810Z,37.8
2022-09-02T12:30:01.153Z,37.8
2022-09-02T12:35:01.747Z,37.7
2022-09-02T12:40:02.146Z,37.7
2022-09-02T12:45:02.496Z,37.7
2022-09-02T12:50:03.002Z,37.7
2022-09-02T12:55:05.318Z,37.7
2022-09-02T13:00:05.658Z,37.7
2022-09-02T13:05:05.985Z,37.6
2022-09-02T13:10:06.381Z,37.6
2022-09-02T13:15:06.729Z,37.6
2022-09-02T13:20:07.074Z,37.6
2022-09-02T13:25:07.431Z,37.6
2022-09-02T13:30:07.828Z,37.5
2022-09-02T13:35:08.417Z,37.5
2022-09-02T13:40:08.736Z,37.5
2022-09-02T13:45:09.006Z,37.5
2022-09-02T13:50:09.360Z,37.3
2022-09-02T13:55:09.698Z,37.2
2022-09-02T14:00:10.055Z,37.1
2022-09-02T14:05:10.577Z,37.1
2022-09-02T14:10:10.904Z,37.1
2022-09-02T19:15:31.950Z,41.9
2022-09-02T19:20:32.403Z,41.9
2022-09-02T19:25:32.836Z,41.8
2022-09-02T19:30:33.246Z,41.8
2022-09-02T19:35:33.670Z,41.8
2022-09-02T19:40:34.089Z,41.7
2022-09-02T19:45:34.581Z,41.7
2022-09-02T19:50:35.261Z,41.7
2022-09-02T19:55:35.709Z,41.7
2022-09-02T20:00:36.168Z,41.7
2022-09-02T20:05:36.585Z,41.6
